Time;durP1;ratioP1;P1;durP2;ratioP2;P2;SDS_P1;SDS_P2;PMS_P1;PMS_P2;Temp;Humidity;BMP_temperature;BMP_pressure;BME280_temperature;BME280_humidity;BME280_pressure;Samples;Min_cycle;Max_cycle;Signal;HPM_P1;HPM_P2
2021/10/19 00:00:17;;;;;;;14.35;9.70;;;16.20;99.90;;;;;;6192241;23;20004;-86
2021/10/19 00:02:43;;;;;;;12.63;9.50;;;16.10;99.90;;;;;;6193284;23;20004;-86
2021/10/19 00:05:10;;;;;;;16.73;10.25;;;16.10;99.90;;;;;;6194124;23;20049;-86
2021/10/19 00:07:36;;;;;;;11.82;9.18;;;16.10;99.90;;;;;;6192483;23;20315;-85
2021/10/19 00:10:04;;;;;;;13.63;9.63;;;16.10;99.90;;;;;;6193732;23;20052;-86
2021/10/19 00:12:31;;;;;;;12.82;9.68;;;16.10;99.90;;;;;;6193754;23;20285;-86
2021/10/19 00:14:57;;;;;;;14.20;9.38;;;16.10;99.90;;;;;;6193699;23;20000;-86
2021/10/19 00:17:23;;;;;;;12.65;9.15;;;16.10;99.90;;;;;;6193040;23;20013;-86
2021/10/19 00:19:49;;;;;;;10.88;8.70;;;16.10;99.90;;;;;;6191273;23;20004;-86
2021/10/19 00:22:15;;;;;;;13.10;9.65;;;16.10;99.90;;;;;;6192493;23;20012;-86
2021/10/19 00:24:40;;;;;;;11.20;9.05;;;16.10;99.90;;;;;;6193534;23;19997;-86
2021/10/19 00:27:06;;;;;;;13.13;10.32;;;16.10;99.90;;;;;;6193350;23;20085;-86
2021/10/19 00:29:32;;;;;;;12.00;9.75;;;16.10;99.90;;;;;;6191534;23;20293;-86
2021/10/19 00:31:58;;;;;;;13.02;9.65;;;16.00;99.90;;;;;;6193646;23;20273;-85
2021/10/19 00:34:24;;;;;;;14.13;9.73;;;16.00;99.90;;;;;;6193267;23;20028;-85
2021/10/19 00:36:49;;;;;;;12.07;10.00;;;16.00;99.90;;;;;;6193859;23;20012;-86
2021/10/19 00:39:16;;;;;;;11.82;10.35;;;16.00;99.90;;;;;;6193286;23;20005;-86
2021/10/19 00:41:42;;;;;;;13.18;10.27;;;16.00;99.90;;;;;;6193129;23;20065;-86
2021/10/19 00:44:07;;;;;;;13.93;9.48;;;16.00;99.90;;;;;;6193080;23;19997;-86
2021/10/19 00:46:33;;;;;;;12.77;9.35;;;15.90;99.90;;;;;;6191725;23;20576;-86
2021/10/19 00:48:59;;;;;;;12.32;10.15;;;15.90;99.90;;;;;;6192027;23;20000;-86
2021/10/19 00:51:25;;;;;;;10.73;9.45;;;15.90;99.90;;;;;;6192860;23;20031;-85
2021/10/19 00:53:51;;;;;;;14.23;10.45;;;15.90;99.90;;;;;;6192878;23;20041;-86
2021/10/19 00:56:16;;;;;;;14.07;9.65;;;15.90;99.90;;;;;;6193007;23;20012;-86
2021/10/19 00:58:43;;;;;;;14.40;10.90;;;15.80;99.90;;;;;;6192647;23;20000;-86
2021/10/19 01:01:09;;;;;;;12.27;10.20;;;15.80;99.90;;;;;;6190941;23;20458;-86
2021/10/19 01:03:35;;;;;;;13.32;9.93;;;15.80;99.90;;;;;;6192746;23;20014;-85
2021/10/19 01:06:03;;;;;;;15.20;11.20;;;15.80;99.90;;;;;;6193152;23;20056;-86
2021/10/19 01:08:30;;;;;;;15.20;11.02;;;15.80;99.90;;;;;;6192851;23;20069;-86
2021/10/19 01:10:56;;;;;;;14.40;10.35;;;15.70;99.90;;;;;;6193315;23;20240;-86
2021/10/19 01:13:22;;;;;;;14.13;10.18;;;15.70;99.90;;;;;;6192938;23;20004;-86
2021/10/19 01:15:48;;;;;;;15.35;10.77;;;15.70;99.90;;;;;;6193002;23;20009;-86
2021/10/19 01:18:16;;;;;;;15.23;10.30;;;15.70;99.90;;;;;;6193649;23;20296;-86
2021/10/19 01:20:43;;;;;;;13.68;10.50;;;15.70;99.90;;;;;;6192021;23;20048;-85
2021/10/19 01:23:10;;;;;;;12.02;10.45;;;15.70;99.90;;;;;;6192224;23;20005;-86
2021/10/19 01:25:37;;;;;;;15.50;9.82;;;15.70;99.90;;;;;;6191794;23;20001;-86
2021/10/19 01:28:09;;;;;;;11.65;10.38;;;15.70;99.90;;;;;;6192971;23;20009;-86
2021/10/19 01:30:43;;;;;;;13.80;9.90;;;15.60;99.90;;;;;;6193218;23;19996;-86
2021/10/19 01:33:10;;;;;;;12.95;9.85;;;15.60;99.90;;;;;;6192126;23;20000;-85
2021/10/19 01:35:40;;;;;;;12.95;10.32;;;15.60;99.90;;;;;;6193154;23;20281;-86
2021/10/19 01:38:10;;;;;;;12.65;10.00;;;15.70;99.90;;;;;;6192636;23;19993;-86
2021/10/19 01:40:36;;;;;;;12.20;10.27;;;15.60;99.90;;;;;;6192711;23;20021;-86
2021/10/19 01:43:07;;;;;;;13.48;10.38;;;15.60;99.90;;;;;;6192898;23;20081;-86
2021/10/19 01:45:33;;;;;;;14.60;9.77;;;15.60;99.90;;;;;;6191263;23;19997;-85
2021/10/19 01:47:58;;;;;;;13.27;10.70;;;15.60;99.90;;;;;;6191186;23;20007;-86
2021/10/19 01:50:24;;;;;;;15.38;10.73;;;15.60;99.90;;;;;;6191416;23;20001;-86
2021/10/19 01:52:50;;;;;;;13.80;9.88;;;15.60;99.90;;;;;;6191897;23;19997;-86
2021/10/19 01:55:16;;;;;;;12.85;10.15;;;15.60;99.90;;;;;;6192750;23;20019;-86
2021/10/19 01:57:42;;;;;;;16.95;10.43;;;15.60;99.90;;;;;;6192052;23;20001;-86
2021/10/19 02:00:10;;;;;;;14.18;10.77;;;15.60;99.90;;;;;;6191208;23;20292;-85
2021/10/19 02:02:35;;;;;;;15.48;10.20;;;15.50;99.90;;;;;;6190751;23;20038;-86
2021/10/19 02:05:01;;;;;;;15.93;10.63;;;15.50;99.90;;;;;;6192796;23;19993;-86
2021/10/19 02:07:27;;;;;;;13.27;10.15;;;15.50;99.90;;;;;;6192018;23;20005;-86
2021/10/19 02:09:52;;;;;;;14.50;9.52;;;15.50;99.90;;;;;;6190757;23;20007;-85
2021/10/19 02:12:18;;;;;;;12.43;10.38;;;15.50;99.90;;;;;;6191308;23;20092;-86
2021/10/19 02:14:44;;;;;;;13.50;9.80;;;15.50;99.90;;;;;;6193339;23;19989;-86
2021/10/19 02:17:09;;;;;;;13.93;9.95;;;15.50;99.90;;;;;;6191527;23;20009;-86
2021/10/19 02:19:35;;;;;;;12.68;9.52;;;15.40;99.90;;;;;;6192542;23;20265;-86
2021/10/19 02:22:01;;;;;;;13.48;9.13;;;15.40;99.90;;;;;;6192798;23;20005;-85
2021/10/19 02:24:27;;;;;;;13.18;9.90;;;15.40;99.90;;;;;;6191949;23;20059;-86
2021/10/19 02:26:52;;;;;;;12.80;10.10;;;15.40;99.90;;;;;;6192877;23;19993;-86
2021/10/19 02:29:19;;;;;;;14.65;9.98;;;15.40;99.90;;;;;;6190734;23;20005;-86
2021/10/19 02:31:46;;;;;;;14.18;10.02;;;15.40;99.90;;;;;;6192055;23;20427;-86
2021/10/19 02:34:12;;;;;;;15.02;10.85;;;15.40;99.90;;;;;;6191409;23;20285;-86
2021/10/19 02:36:38;;;;;;;12.23;9.60;;;15.30;99.90;;;;;;6191539;23;20000;-85
2021/10/19 02:39:06;;;;;;;15.65;10.45;;;15.40;99.90;;;;;;6193187;23;20001;-85
2021/10/19 02:41:33;;;;;;;11.75;9.63;;;15.40;99.90;;;;;;6192629;23;19989;-86
2021/10/19 02:43:58;;;;;;;13.25;10.10;;;15.30;99.90;;;;;;6192416;23;20284;-86
2021/10/19 02:46:25;;;;;;;14.10;10.40;;;15.40;99.90;;;;;;6192174;23;19993;-85
2021/10/19 02:48:52;;;;;;;15.70;11.00;;;15.30;99.90;;;;;;6190826;23;20005;-86
2021/10/19 02:51:18;;;;;;;13.82;10.10;;;15.30;99.90;;;;;;6191483;23;19997;-86
2021/10/19 02:53:44;;;;;;;12.32;9.90;;;15.30;99.90;;;;;;6192629;23;20044;-86
2021/10/19 02:56:10;;;;;;;11.55;9.68;;;15.30;99.90;;;;;;6191701;23;20048;-86
2021/10/19 02:58:35;;;;;;;14.00;10.40;;;15.30;99.90;;;;;;6193325;23;20141;-86
2021/10/19 03:01:01;;;;;;;14.55;10.05;;;15.30;99.90;;;;;;6194258;23;19997;-86
2021/10/19 03:03:27;;;;;;;11.68;9.85;;;15.30;99.90;;;;;;6193775;23;20013;-86
2021/10/19 03:05:52;;;;;;;12.10;9.43;;;15.30;99.90;;;;;;6194417;23;20324;-86
2021/10/19 03:08:18;;;;;;;11.07;9.18;;;15.40;99.90;;;;;;6194038;23;20024;-85
2021/10/19 03:10:44;;;;;;;13.73;9.23;;;15.30;99.90;;;;;;6193776;23;20197;-85
2021/10/19 03:13:09;;;;;;;11.60;9.60;;;15.30;99.90;;;;;;6192670;23;20031;-85
2021/10/19 03:15:35;;;;;;;13.05;10.07;;;15.30;99.90;;;;;;6193601;23;20244;-85
2021/10/19 03:18:01;;;;;;;13.52;9.68;;;15.30;99.90;;;;;;6193881;23;20000;-86
2021/10/19 03:20:26;;;;;;;15.82;9.07;;;15.30;99.90;;;;;;6192218;23;20056;-85
2021/10/19 03:22:52;;;;;;;16.13;9.85;;;15.30;99.90;;;;;;6192251;23;20279;-86
2021/10/19 03:25:18;;;;;;;12.23;9.05;;;15.30;99.90;;;;;;6193562;23;20193;-85
2021/10/19 03:27:43;;;;;;;16.70;9.95;;;15.30;99.90;;;;;;6191895;23;20004;-86
2021/10/19 03:30:09;;;;;;;10.93;9.10;;;15.30;99.90;;;;;;6191671;23;20170;-86
2021/10/19 03:32:35;;;;;;;11.50;9.07;;;15.30;99.90;;;;;;6193792;23;20184;-86
2021/10/19 03:35:01;;;;;;;12.80;9.85;;;15.30;99.90;;;;;;6194619;23;20273;-85
2021/10/19 03:37:27;;;;;;;13.68;9.63;;;15.30;99.90;;;;;;6193841;23;19989;-86
2021/10/19 03:39:52;;;;;;;12.02;9.18;;;15.30;99.90;;;;;;6194361;23;19993;-86
2021/10/19 03:42:18;;;;;;;12.40;9.35;;;15.30;99.90;;;;;;6192329;23;20008;-85
2021/10/19 03:44:44;;;;;;;12.23;9.57;;;15.30;99.90;;;;;;6193389;23;19993;-85
2021/10/19 03:47:10;;;;;;;11.98;10.00;;;15.30;99.90;;;;;;6193554;23;20288;-86
2021/10/19 03:49:35;;;;;;;13.25;9.20;;;15.20;99.90;;;;;;6193081;23;20004;-86
2021/10/19 03:52:01;;;;;;;12.35;8.90;;;15.20;99.90;;;;;;6193706;23;19994;-85
2021/10/19 03:54:27;;;;;;;14.98;9.65;;;15.20;99.90;;;;;;6192867;23;20001;-86
2021/10/19 03:56:53;;;;;;;12.38;9.68;;;15.10;99.90;;;;;;6193156;23;20024;-86
2021/10/19 03:59:18;;;;;;;12.27;9.75;;;15.20;99.90;;;;;;6193660;23;20012;-85
2021/10/19 04:01:44;;;;;;;11.15;9.40;;;15.20;99.90;;;;;;6193295;23;19997;-86
2021/10/19 04:04:10;;;;;;;14.40;9.80;;;15.20;99.90;;;;;;6191399;23;20032;-85
2021/10/19 04:06:35;;;;;;;12.20;8.90;;;15.10;99.90;;;;;;6193504;23;19997;-86
2021/10/19 04:09:01;;;;;;;14.45;9.43;;;15.10;99.90;;;;;;6192640;23;20285;-86
2021/10/19 04:11:27;;;;;;;17.52;10.13;;;15.10;99.90;;;;;;6193384;23;20076;-85
2021/10/19 04:13:53;;;;;;;12.48;9.00;;;15.10;99.90;;;;;;6193688;23;19997;-86
2021/10/19 04:16:19;;;;;;;14.90;9.75;;;15.00;99.90;;;;;;6192655;23;20273;-85
2021/10/19 04:18:45;;;;;;;13.23;9.50;;;15.00;99.90;;;;;;6193387;23;20057;-86
2021/10/19 04:21:10;;;;;;;14.45;9.95;;;15.00;99.90;;;;;;6192807;23;19993;-86
2021/10/19 04:23:36;;;;;;;12.63;9.90;;;15.00;99.90;;;;;;6193651;23;20012;-85
2021/10/19 04:26:02;;;;;;;13.82;9.82;;;15.10;99.90;;;;;;6193514;23;19997;-85
2021/10/19 04:28:28;;;;;;;13.85;9.68;;;15.10;99.90;;;;;;6193196;23;20040;-85
2021/10/19 04:30:53;;;;;;;15.48;9.82;;;15.10;99.90;;;;;;6191824;23;20341;-86
2021/10/19 04:33:19;;;;;;;16.80;10.43;;;15.00;99.90;;;;;;6193405;23;20052;-85
2021/10/19 04:35:48;;;;;;;14.07;9.95;;;15.00;99.90;;;;;;6193386;23;19999;-85
2021/10/19 04:38:14;;;;;;;16.40;10.02;;;15.00;99.90;;;;;;6191792;23;20200;-86
2021/10/19 04:40:40;;;;;;;12.32;9.68;;;15.00;99.90;;;;;;6193137;23;20308;-85
2021/10/19 04:43:05;;;;;;;16.70;9.75;;;15.10;99.90;;;;;;6192723;23;20021;-85
2021/10/19 04:45:31;;;;;;;15.45;9.70;;;15.00;99.90;;;;;;6193553;23;19993;-86
2021/10/19 04:47:57;;;;;;;17.15;9.52;;;15.00;99.90;;;;;;6192722;23;20028;-86
2021/10/19 04:50:24;;;;;;;15.05;10.10;;;15.00;99.90;;;;;;6193076;23;19993;-86
2021/10/19 04:52:50;;;;;;;17.42;10.18;;;15.00;99.90;;;;;;6192190;23;20246;-85
2021/10/19 04:55:15;;;;;;;15.25;10.05;;;14.90;99.90;;;;;;6192631;23;20001;-85
2021/10/19 04:57:41;;;;;;;13.30;9.45;;;14.90;99.90;;;;;;6192779;23;20064;-86
2021/10/19 05:00:08;;;;;;;15.68;10.52;;;14.80;99.90;;;;;;6190986;23;20323;-84
2021/10/19 05:02:45;;;;;;;12.10;9.65;;;14.80;99.90;;;;;;6182938;23;20055;-85
2021/10/19 05:05:11;;;;;;;14.15;9.98;;;14.80;99.90;;;;;;6182125;23;20059;-87
2021/10/19 05:07:37;;;;;;;14.75;10.07;;;14.80;99.90;;;;;;6182299;23;19997;-86
2021/10/19 05:10:03;;;;;;;14.45;9.40;;;14.80;99.90;;;;;;6181730;23;20005;-86
2021/10/19 05:12:29;;;;;;;16.77;9.32;;;14.80;99.90;;;;;;6181841;23;20024;-86
2021/10/19 05:14:57;;;;;;;12.27;9.40;;;14.80;99.90;;;;;;6181902;23;20065;-85
2021/10/19 05:17:23;;;;;;;13.90;10.45;;;14.80;99.90;;;;;;6181838;23;20023;-86
2021/10/19 05:19:49;;;;;;;15.65;9.15;;;14.70;99.90;;;;;;6182678;23;20406;-86
2021/10/19 05:22:15;;;;;;;15.70;9.55;;;14.80;99.90;;;;;;6183266;23;20020;-86
2021/10/19 05:24:40;;;;;;;12.55;9.73;;;14.70;99.90;;;;;;6182454;23;20461;-86
2021/10/19 05:27:06;;;;;;;13.63;9.43;;;14.70;99.90;;;;;;6184874;23;20001;-85
2021/10/19 05:29:32;;;;;;;13.40;9.95;;;14.70;99.90;;;;;;6184098;23;20072;-85
2021/10/19 05:31:58;;;;;;;16.50;9.85;;;14.70;99.90;;;;;;6183070;23;20442;-86
2021/10/19 05:34:24;;;;;;;13.05;9.30;;;14.70;99.90;;;;;;6186635;23;20036;-86
2021/10/19 05:36:50;;;;;;;10.85;8.82;;;14.70;99.90;;;;;;6184539;23;20001;-86
2021/10/19 05:39:17;;;;;;;13.68;8.88;;;14.70;99.90;;;;;;6181677;23;20104;-86
2021/10/19 05:41:43;;;;;;;12.27;9.15;;;14.70;99.90;;;;;;6181851;23;20004;-86
2021/10/19 05:44:09;;;;;;;14.73;9.77;;;14.60;99.90;;;;;;6180147;23;20092;-87
2021/10/19 05:46:35;;;;;;;13.40;9.50;;;14.60;99.90;;;;;;6182103;23;20500;-87
2021/10/19 05:49:01;;;;;;;14.40;9.73;;;14.50;99.90;;;;;;6180795;23;20012;-86
2021/10/19 05:51:26;;;;;;;10.57;8.68;;;14.50;99.90;;;;;;6179971;23;20001;-86
2021/10/19 05:53:52;;;;;;;15.57;8.90;;;14.50;99.90;;;;;;6181326;23;20005;-86
2021/10/19 05:56:18;;;;;;;11.95;9.25;;;14.60;99.90;;;;;;6181661;23;20059;-86
2021/10/19 05:58:43;;;;;;;14.35;8.98;;;14.50;99.90;;;;;;6182161;23;20017;-88
2021/10/19 06:01:09;;;;;;;12.70;9.48;;;14.50;99.90;;;;;;6180646;23;20001;-89
2021/10/19 06:03:35;;;;;;;12.48;9.25;;;14.50;99.90;;;;;;6180619;23;20025;-89
2021/10/19 06:06:00;;;;;;;15.25;10.10;;;14.50;99.90;;;;;;6180306;23;20382;-89
2021/10/19 06:08:26;;;;;;;13.27;9.75;;;14.50;99.90;;;;;;6181648;23;20081;-89
2021/10/19 06:10:55;;;;;;;14.98;9.60;;;14.50;99.90;;;;;;6180189;23;20051;-90
2021/10/19 06:13:24;;;;;;;13.02;9.77;;;14.50;99.90;;;;;;6181738;23;20040;-89
2021/10/19 06:15:49;;;;;;;12.57;9.15;;;14.50;99.90;;;;;;6179762;23;20040;-90
2021/10/19 06:18:15;;;;;;;13.93;9.77;;;14.40;99.90;;;;;;6182105;23;20005;-90
2021/10/19 06:20:41;;;;;;;11.85;9.63;;;14.40;99.90;;;;;;6181931;23;20155;-91
2021/10/19 06:23:06;;;;;;;11.90;9.35;;;14.40;99.90;;;;;;6181103;23;20084;-89
2021/10/19 06:25:32;;;;;;;24.48;9.10;;;14.40;99.90;;;;;;6181856;23;20427;-90
2021/10/19 06:27:58;;;;;;;10.70;9.20;;;14.40;99.90;;;;;;6181951;23;20005;-91
2021/10/19 06:30:23;;;;;;;13.55;9.93;;;14.30;99.90;;;;;;6181693;23;20008;-90
2021/10/19 06:32:49;;;;;;;14.82;9.82;;;14.30;99.90;;;;;;6182624;23;20001;-88
2021/10/19 06:35:15;;;;;;;14.27;9.30;;;14.30;99.90;;;;;;6183763;23;20071;-90
2021/10/19 06:37:40;;;;;;;13.73;10.05;;;14.20;99.90;;;;;;6183852;23;20029;-89
2021/10/19 06:40:07;;;;;;;17.70;10.10;;;14.30;99.90;;;;;;6184054;23;20004;-89
2021/10/19 06:42:34;;;;;;;13.65;9.38;;;14.30;99.90;;;;;;6187140;23;20018;-89
2021/10/19 06:45:02;;;;;;;12.55;9.10;;;14.30;99.90;;;;;;6183787;23;20024;-91
2021/10/19 06:47:29;;;;;;;15.52;10.50;;;14.30;99.90;;;;;;6183453;23;20005;-89
2021/10/19 06:49:55;;;;;;;16.05;9.30;;;14.40;99.90;;;;;;6183613;23;19997;-91
2021/10/19 06:52:21;;;;;;;13.88;9.65;;;14.40;99.90;;;;;;6183293;23;20005;-90
2021/10/19 06:54:47;;;;;;;13.65;9.43;;;14.40;99.90;;;;;;6184159;23;20044;-89
2021/10/19 06:57:12;;;;;;;14.35;9.80;;;14.40;99.90;;;;;;6183459;23;20373;-90
2021/10/19 06:59:38;;;;;;;16.60;9.00;;;14.40;99.90;;;;;;6183530;23;20005;-90
2021/10/19 07:02:04;;;;;;;11.98;9.05;;;14.40;99.90;;;;;;6183406;23;20009;-89
2021/10/19 07:04:30;;;;;;;11.70;9.48;;;14.50;99.90;;;;;;6181721;23;20430;-88
2021/10/19 07:06:55;;;;;;;11.32;9.13;;;14.40;99.90;;;;;;6183208;23;20005;-89
2021/10/19 07:09:21;;;;;;;12.70;9.13;;;14.50;99.90;;;;;;6181678;23;20005;-89
2021/10/19 07:11:47;;;;;;;13.32;9.10;;;14.50;99.90;;;;;;6183464;23;20363;-89
2021/10/19 07:14:12;;;;;;;11.93;8.75;;;14.60;99.90;;;;;;6183316;23;20001;-89
2021/10/19 07:16:38;;;;;;;11.75;8.57;;;14.60;99.90;;;;;;6183232;23;20136;-88
2021/10/19 07:19:08;;;;;;;15.50;8.65;;;14.70;99.90;;;;;;6179133;23;20015;-89
2021/10/19 07:21:34;;;;;;;14.50;8.35;;;14.70;99.90;;;;;;6181666;23;20080;-91
2021/10/19 07:24:00;;;;;;;18.08;8.98;;;14.80;99.90;;;;;;6182569;23;20445;-88
2021/10/19 07:26:25;;;;;;;13.85;8.48;;;14.80;99.90;;;;;;6181110;23;20036;-90
2021/10/19 07:28:51;;;;;;;16.08;9.05;;;14.90;99.90;;;;;;6180925;23;20402;-90
2021/10/19 07:31:17;;;;;;;12.32;8.13;;;14.90;99.90;;;;;;6182970;23;20014;-88
2021/10/19 07:33:43;;;;;;;14.43;8.55;;;15.00;99.90;;;;;;6182842;23;20213;-88
2021/10/19 07:36:09;;;;;;;12.40;8.02;;;15.10;99.90;;;;;;6175218;23;20340;-89
2021/10/19 07:38:34;;;;;;;10.75;7.68;;;15.10;99.90;;;;;;6171766;23;20047;-89
2021/10/19 07:41:00;;;;;;;12.68;7.65;;;15.20;99.90;;;;;;6181208;23;20009;-90
2021/10/19 07:43:27;;;;;;;12.15;7.28;;;15.20;99.90;;;;;;6180810;23;20021;-89
2021/10/19 07:45:53;;;;;;;9.18;7.07;;;15.30;99.90;;;;;;6180949;23;20407;-90
2021/10/19 07:48:19;;;;;;;12.57;7.85;;;15.40;99.90;;;;;;6181271;23;20009;-88
2021/10/19 07:50:47;;;;;;;11.43;7.50;;;15.50;99.90;;;;;;6180740;23;20032;-92
2021/10/19 07:53:14;;;;;;;8.23;6.60;;;15.50;99.90;;;;;;6182722;23;20047;-89
2021/10/19 07:55:41;;;;;;;10.13;6.95;;;15.60;99.90;;;;;;6183361;23;20009;-89
2021/10/19 07:58:06;;;;;;;12.93;7.03;;;15.70;99.90;;;;;;6184465;23;20020;-90
2021/10/19 08:00:32;;;;;;;11.95;6.90;;;15.80;99.90;;;;;;6180721;23;20005;-89
2021/10/19 08:02:58;;;;;;;10.65;6.90;;;15.90;99.90;;;;;;6182563;23;20013;-89
2021/10/19 08:05:25;;;;;;;10.77;6.28;;;15.90;99.90;;;;;;6182436;23;20307;-89
2021/10/19 08:08:02;;;;;;;10.65;6.35;;;16.00;99.90;;;;;;6182515;23;20087;-89
2021/10/19 08:10:28;;;;;;;7.85;6.28;;;16.10;99.90;;;;;;6180977;23;20072;-89
2021/10/19 08:12:53;;;;;;;7.78;6.07;;;16.20;99.90;;;;;;6182670;23;20036;-82
2021/10/19 08:15:19;;;;;;;11.85;6.68;;;16.20;99.90;;;;;;6183529;23;20005;-76
2021/10/19 08:17:46;;;;;;;11.00;6.05;;;16.30;99.90;;;;;;6182385;23;20013;-78
2021/10/19 08:20:12;;;;;;;8.60;5.68;;;16.30;99.90;;;;;;6182484;23;20063;-86
2021/10/19 08:22:39;;;;;;;9.15;6.22;;;16.40;99.90;;;;;;6183777;23;20063;-77
2021/10/19 08:25:09;;;;;;;11.05;6.57;;;16.50;99.90;;;;;;6181188;23;20001;-85
2021/10/19 08:27:37;;;;;;;11.65;6.90;;;16.50;99.90;;;;;;6182098;23;20449;-84
2021/10/19 08:30:04;;;;;;;13.52;6.50;;;16.60;99.90;;;;;;6182390;23;20358;-86
2021/10/19 08:32:30;;;;;;;9.73;6.00;;;16.60;99.90;;;;;;6182763;23;20464;-84
2021/10/19 08:34:56;;;;;;;11.85;6.00;;;16.70;99.90;;;;;;6182960;23;20009;-83
2021/10/19 08:37:21;;;;;;;8.15;5.57;;;16.80;99.90;;;;;;6188070;23;20430;-84
2021/10/19 08:39:47;;;;;;;9.70;5.72;;;16.80;99.90;;;;;;6183627;23;20322;-85
2021/10/19 08:42:14;;;;;;;8.30;5.38;;;16.90;99.90;;;;;;6181744;23;20434;-84
2021/10/19 08:44:41;;;;;;;7.80;5.50;;;17.00;99.90;;;;;;6181793;23;20005;-85
2021/10/19 08:47:07;;;;;;;8.15;5.53;;;17.10;99.90;;;;;;6180200;23;20039;-85
2021/10/19 08:49:33;;;;;;;6.72;5.35;;;17.10;99.90;;;;;;6180702;23;20001;-85
2021/10/19 08:51:59;;;;;;;8.52;5.47;;;17.10;99.90;;;;;;6180298;23;20028;-84
2021/10/19 08:54:25;;;;;;;8.48;5.68;;;17.20;99.90;;;;;;6180919;23;20005;-85
2021/10/19 08:56:50;;;;;;;11.57;6.13;;;17.20;99.90;;;;;;6181213;23;20009;-85
2021/10/19 08:59:21;;;;;;;9.43;5.28;;;17.30;99.90;;;;;;6182092;23;20091;-85
2021/10/19 09:01:48;;;;;;;9.80;5.60;;;17.40;99.90;;;;;;6181646;23;20136;-85
2021/10/19 09:04:13;;;;;;;5.70;4.90;;;17.40;99.90;;;;;;6182215;23;20482;-84
2021/10/19 09:06:41;;;;;;;12.73;5.82;;;17.40;99.90;;;;;;6180050;23;20029;-85
2021/10/19 09:09:08;;;;;;;8.98;5.00;;;17.40;99.90;;;;;;6170657;23;20051;-85
2021/10/19 09:11:45;;;;;;;9.25;4.97;;;17.40;99.90;;;;;;6179943;23;19997;-85
2021/10/19 09:14:12;;;;;;;6.75;4.78;;;17.50;99.90;;;;;;6181601;23;20024;-84
2021/10/19 09:16:45;;;;;;;6.65;5.40;;;17.50;99.90;;;;;;6181244;23;20009;-85
2021/10/19 09:19:12;;;;;;;9.40;5.00;;;17.60;99.90;;;;;;6181623;23;20059;-84
2021/10/19 09:21:53;;;;;;;13.18;5.15;;;17.70;99.90;;;;;;6181947;23;20001;-85
2021/10/19 09:24:32;;;;;;;6.75;5.00;;;17.80;99.90;;;;;;6181054;23;20028;-84
2021/10/19 09:27:06;;;;;;;7.47;5.00;;;17.80;99.90;;;;;;6181062;23;20005;-85
2021/10/19 09:29:36;;;;;;;7.93;5.05;;;17.90;99.90;;;;;;6181503;23;20005;-84
2021/10/19 09:32:05;;;;;;;6.70;4.80;;;18.00;99.90;;;;;;6179537;23;20005;-85
2021/10/19 09:34:33;;;;;;;9.38;5.15;;;18.10;99.90;;;;;;6179417;23;20001;-85
2021/10/19 09:36:59;;;;;;;10.05;5.55;;;18.10;99.90;;;;;;6181484;23;20001;-84
2021/10/19 09:39:30;;;;;;;10.95;4.85;;;18.10;99.90;;;;;;6181559;23;20037;-85
2021/10/19 09:41:56;;;;;;;8.60;4.63;;;18.20;99.90;;;;;;6181526;23;20027;-85
2021/10/19 09:44:22;;;;;;;8.07;5.47;;;18.20;99.90;;;;;;6181722;23;20417;-84
2021/10/19 09:46:49;;;;;;;7.03;5.22;;;18.20;99.90;;;;;;6180993;23;20446;-85
2021/10/19 09:49:15;;;;;;;7.38;4.97;;;18.20;99.90;;;;;;6179538;23;20034;-86
2021/10/19 09:51:41;;;;;;;6.45;4.65;;;18.30;99.90;;;;;;6181325;23;20005;-83
2021/10/19 09:54:11;;;;;;;9.23;5.13;;;18.30;99.90;;;;;;6181249;23;20012;-84
2021/10/19 09:56:39;;;;;;;8.93;4.80;;;18.30;99.90;;;;;;6180767;23;20327;-83
2021/10/19 09:59:06;;;;;;;7.15;4.97;;;18.50;99.90;;;;;;6181037;23;20176;-84
2021/10/19 10:01:33;;;;;;;6.30;5.10;;;18.60;99.90;;;;;;6181384;23;20005;-83
2021/10/19 10:04:00;;;;;;;11.35;4.63;;;18.80;99.90;;;;;;6181185;23;20036;-84
2021/10/19 10:06:35;;;;;;;5.82;4.43;;;18.90;99.90;;;;;;6181332;23;20008;-83
2021/10/19 10:09:03;;;;;;;6.43;4.75;;;18.90;99.90;;;;;;6179513;23;20009;-84
2021/10/19 10:11:29;;;;;;;9.85;4.82;;;19.00;99.90;;;;;;6181493;23;20080;-84
2021/10/19 10:14:00;;;;;;;10.55;4.30;;;19.10;99.90;;;;;;6180582;23;20461;-83
2021/10/19 10:16:27;;;;;;;8.95;4.78;;;19.10;99.90;;;;;;6180819;23;20013;-83
2021/10/19 10:18:53;;;;;;;7.25;4.68;;;19.10;99.90;;;;;;6181430;23;20040;-84
2021/10/19 10:21:22;;;;;;;7.03;4.70;;;19.20;99.90;;;;;;6181174;23;20001;-84
2021/10/19 10:24:00;;;;;;;6.13;4.00;;;19.30;99.90;;;;;;6181067;23;20088;-83
2021/10/19 10:26:29;;;;;;;10.75;4.90;;;19.40;99.90;;;;;;6180320;23;20016;-83
2021/10/19 10:29:07;;;;;;;8.35;4.43;;;19.50;99.90;;;;;;6180962;23;20008;-84
2021/10/19 10:31:45;;;;;;;6.43;4.55;;;19.60;99.90;;;;;;6181153;23;20004;-82
2021/10/19 10:34:12;;;;;;;8.32;4.70;;;19.70;99.90;;;;;;6181406;23;20008;-82
2021/10/19 10:36:42;;;;;;;9.13;4.93;;;19.80;99.90;;;;;;6180921;23;20056;-82
2021/10/19 10:39:08;;;;;;;5.30;4.40;;;19.90;99.90;;;;;;6180478;23;20001;-83
2021/10/19 10:41:52;;;;;;;8.25;4.78;;;20.00;99.90;;;;;;6180693;23;20005;-82
2021/10/19 10:44:22;;;;;;;7.05;4.63;;;20.00;99.90;;;;;;6180847;23;20009;-83
2021/10/19 10:46:48;;;;;;;8.60;5.35;;;20.10;99.90;;;;;;6178903;23;20002;-82
2021/10/19 10:49:14;;;;;;;8.20;5.28;;;20.20;99.90;;;;;;6181031;23;20004;-82
2021/10/19 10:51:42;;;;;;;7.60;5.57;;;20.30;99.90;;;;;;6181286;23;20001;-83
2021/10/19 10:54:14;;;;;;;7.05;4.93;;;20.30;99.90;;;;;;6180822;23;20326;-81
2021/10/19 10:56:49;;;;;;;11.57;5.07;;;20.40;99.90;;;;;;6180901;23;19997;-82
2021/10/19 10:59:24;;;;;;;8.82;4.68;;;20.50;99.90;;;;;;6180494;23;20005;-81
2021/10/19 11:01:50;;;;;;;5.95;4.85;;;20.50;99.90;;;;;;6181113;23;20005;-81
2021/10/19 11:04:16;;;;;;;8.15;5.68;;;20.50;99.90;;;;;;6182240;23;20016;-82
2021/10/19 11:06:41;;;;;;;9.82;4.97;;;20.60;99.90;;;;;;6180080;23;20378;-82
2021/10/19 11:09:13;;;;;;;7.32;4.28;;;20.80;99.90;;;;;;6181531;23;20024;-82
2021/10/19 11:11:41;;;;;;;8.75;4.70;;;20.80;99.90;;;;;;6181316;23;19997;-82
2021/10/19 11:14:07;;;;;;;7.55;4.57;;;20.90;99.90;;;;;;6180236;23;20149;-82
2021/10/19 11:16:42;;;;;;;5.85;4.55;;;21.00;99.90;;;;;;6178887;23;20006;-82
2021/10/19 11:19:21;;;;;;;9.32;4.72;;;21.10;99.90;;;;;;6180181;23;20005;-82
2021/10/19 11:21:52;;;;;;;10.68;4.90;;;21.20;99.90;;;;;;6179477;23;20481;-82
2021/10/19 11:24:18;;;;;;;6.35;4.30;;;21.30;99.90;;;;;;6183231;23;20100;-81
2021/10/19 11:26:45;;;;;;;7.38;4.53;;;21.30;99.90;;;;;;6180004;23;20032;-82
2021/10/19 11:29:12;;;;;;;10.18;4.82;;;21.40;99.90;;;;;;6183080;23;20478;-82
2021/10/19 11:31:38;;;;;;;8.55;4.32;;;21.50;99.90;;;;;;6183573;23;20109;-83
2021/10/19 11:34:06;;;;;;;6.72;4.43;;;21.50;99.90;;;;;;6183184;23;20001;-82
2021/10/19 11:36:31;;;;;;;9.68;4.50;;;21.60;99.90;;;;;;6183639;23;20005;-82
2021/10/19 11:39:12;;;;;;;6.10;4.13;;;21.70;99.90;;;;;;6182968;23;20109;-82
2021/10/19 11:41:42;;;;;;;6.78;4.07;;;21.80;99.90;;;;;;6183034;23;20028;-82
2021/10/19 11:44:09;;;;;;;12.15;4.22;;;21.80;99.90;;;;;;6157841;23;20019;-83
2021/10/19 11:46:36;;;;;;;10.25;4.28;;;22.00;99.90;;;;;;6183751;23;20028;-82
2021/10/19 11:49:13;;;;;;;6.07;4.10;;;22.10;99.90;;;;;;6183034;23;20379;-82
2021/10/19 11:51:45;;;;;;;9.00;4.13;;;22.20;99.90;;;;;;6183036;23;20002;-83
2021/10/19 11:54:13;;;;;;;6.70;4.07;;;22.20;99.90;;;;;;6172013;23;20005;-82
2021/10/19 11:56:39;;;;;;;6.88;4.32;;;22.20;99.90;;;;;;6182763;23;19997;-82
2021/10/19 11:59:07;;;;;;;6.07;4.22;;;22.20;99.90;;;;;;6182639;23;20032;-82
2021/10/19 12:01:41;;;;;;;6.88;4.05;;;22.20;99.90;;;;;;6182537;23;20380;-82
2021/10/19 12:04:12;;;;;;;10.55;4.68;;;22.20;99.90;;;;;;6182830;23;20013;-82
2021/10/19 12:06:42;;;;;;;6.70;4.32;;;22.20;99.90;;;;;;6182955;23;20083;-82
2021/10/19 12:09:17;;;;;;;7.90;4.13;;;22.30;99.90;;;;;;6183367;23;20004;-82
2021/10/19 12:11:54;;;;;;;12.15;4.60;;;22.20;99.90;;;;;;6181485;23;20001;-81
2021/10/19 12:14:30;;;;;;;9.98;4.40;;;22.30;99.90;;;;;;6182567;23;20001;-83
2021/10/19 12:16:58;;;;;;;8.70;4.30;;;22.30;99.90;;;;;;6182254;23;20063;-82
2021/10/19 12:19:24;;;;;;;8.25;4.10;;;22.30;99.90;;;;;;6182805;23;20056;-82
2021/10/19 12:22:05;;;;;;;11.90;4.03;;;22.30;99.90;;;;;;6182648;23;20009;-83
2021/10/19 12:24:36;;;;;;;7.88;4.50;;;22.40;99.90;;;;;;6183044;23;20499;-82
2021/10/19 12:27:04;;;;;;;8.13;4.28;;;22.50;99.90;;;;;;6182661;23;20004;-83
2021/10/19 12:29:32;;;;;;;7.47;4.10;;;22.60;99.90;;;;;;6182067;23;20005;-82
2021/10/19 12:31:58;;;;;;;5.95;4.03;;;22.60;99.90;;;;;;6182386;23;20064;-82
2021/10/19 12:34:26;;;;;;;8.13;4.00;;;22.60;99.90;;;;;;6182560;23;20001;-82
2021/10/19 12:36:52;;;;;;;6.78;3.92;;;22.70;99.90;;;;;;6182747;23;20090;-81